Time;durP1;ratioP1;P1;durP2;ratioP2;P2;SDS_P1;SDS_P2;PMS_P1;PMS_P2;Temp;Humidity;BMP_temperature;BMP_pressure;BME280_temperature;BME280_humidity;BME280_pressure;Samples;Min_cycle;Max_cycle;Signal;HPM_P1;HPM_P2
2022/04/03 00:00:40;;;;;;;;;;;;;;;-144.19;100.00;78784.44;5040454;28;19924;-83
2022/04/03 00:03:08;;;;;;;;;;;;;;;-144.19;100.00;78786.41;5057314;28;19947;-82
2022/04/03 00:05:44;;;;;;;;;;;;;;;-144.19;100.00;78770.66;5039894;28;19913;-82
2022/04/03 00:08:12;;;;;;;;;;;;;;;-144.19;100.00;78788.38;5040089;28;19925;-82
2022/04/03 00:10:40;;;;;;;;;;;;;;;-144.19;100.00;78776.56;5057701;28;19937;-83
2022/04/03 00:13:13;;;;;;;;;;;;;;;-144.19;100.00;78784.44;5057574;28;19925;-82
2022/04/03 00:15:42;;;;;;;;;;;;;;;-144.19;100.00;78772.63;5078331;23;19925;-83
2022/04/03 00:18:09;;;;;;;;;;;;;;;-144.19;100.00;78768.69;5073630;28;20259;-84
2022/04/03 00:20:36;;;;;;;;;;;;;;;-144.19;100.00;78762.78;5054779;28;20317;-82
2022/04/03 00:23:02;;;;;;;;;;;;;;;-144.19;100.00;78772.63;5051879;28;19925;-82
2022/04/03 00:25:28;;;;;;;;;;;;;;;-144.19;100.00;78774.59;5073526;28;19924;-83
2022/04/03 00:27:55;;;;;;;;;;;;;;;-144.19;100.00;78784.44;5058542;28;19982;-84
2022/04/03 00:30:21;;;;;;;;;;;;;;;-144.19;100.00;78776.56;5058374;28;19936;-81
2022/04/03 00:32:47;;;;;;;;;;;;;;;-144.19;100.00;78774.59;5073526;28;20268;-84
2022/04/03 00:35:15;;;;;;;;;;;;;;;-144.19;100.00;78778.53;5074038;28;19924;-84
2022/04/03 00:37:41;;;;;;;;;;;;;;;-144.19;100.00;78768.69;5055738;28;19934;-84
2022/04/03 00:40:08;;;;;;;;;;;;;;;-144.19;100.00;78768.69;5056174;28;19925;-84
2022/04/03 00:42:35;;;;;;;;;;;;;;;-144.19;100.00;78772.63;5072581;28;20319;-82
2022/04/03 00:45:02;;;;;;;;;;;;;;;-144.19;100.00;78776.56;5055818;28;19925;-84
2022/04/03 00:47:28;;;;;;;;;;;;;;;-144.19;100.00;78768.69;5073558;28;19929;-84
2022/04/03 00:49:55;;;;;;;;;;;;;;;-144.19;100.00;78764.75;5072944;28;20295;-84
2022/04/03 00:52:21;;;;;;;;;;;;;;;-144.19;100.00;78760.81;5054199;28;19935;-85
2022/04/03 00:54:47;;;;;;;;;;;;;;;-144.19;100.00;78758.84;5073446;28;20342;-85
2022/04/03 00:57:14;;;;;;;;;;;;;;;-144.19;100.00;78750.97;5055587;28;20379;-83
2022/04/03 00:59:44;;;;;;;;;;;;;;;-144.19;100.00;78747.03;5055337;28;19924;-84
2022/04/03 01:02:10;;;;;;;;;;;;;;;-144.19;100.00;78729.31;5054725;28;20374;-81
2022/04/03 01:04:37;;;;;;;;;;;;;;;-144.19;100.00;78733.25;5054747;28;19974;-84
2022/04/03 01:07:04;;;;;;;;;;;;;;;-144.19;100.00;78745.06;5072033;28;19935;-83
2022/04/03 01:09:30;;;;;;;;;;;;;;;-144.19;100.00;78756.88;5072974;28;19928;-82
2022/04/03 01:11:57;;;;;;;;;;;;;;;-144.19;100.00;78752.94;5054557;28;19931;-81
2022/04/03 01:14:30;;;;;;;;;;;;;;;-144.19;100.00;78758.84;5054601;28;19931;-82
2022/04/03 01:16:56;;;;;;;;;;;;;;;-144.19;100.00;78760.81;5072718;28;19931;-83
2022/04/03 01:19:24;;;;;;;;;;;;;;;-144.19;100.00;78772.63;5054745;28;19928;-81
2022/04/03 01:21:50;;;;;;;;;;;;;;;-144.19;100.00;78762.78;5072267;28;19928;-83
2022/04/03 01:24:17;;;;;;;;;;;;;;;-144.19;100.00;78764.75;5051705;28;19924;-84
2022/04/03 01:26:44;;;;;;;;;;;;;;;-144.19;100.00;78766.72;5054873;28;19973;-85
2022/04/03 01:29:11;;;;;;;;;;;;;;;-144.19;100.00;78776.56;5054496;28;20110;-83
2022/04/03 01:31:37;;;;;;;;;;;;;;;-144.19;100.00;78760.81;5072105;28;20315;-83
2022/04/03 01:34:03;;;;;;;;;;;;;;;-144.19;100.00;78770.66;5049249;28;19952;-83
2022/04/03 01:36:30;;;;;;;;;;;;;;;-144.19;100.00;78752.94;5052671;28;19928;-83
2022/04/03 01:38:56;;;;;;;;;;;;;;;-144.19;100.00;78741.13;5052298;28;19925;-85
2022/04/03 01:41:22;;;;;;;;;;;;;;;-144.19;100.00;78737.19;5052377;28;19925;-82
2022/04/03 01:43:48;;;;;;;;;;;;;;;-144.19;100.00;78756.88;5034236;28;20311;-84
2022/04/03 01:46:15;;;;;;;;;;;;;;;-144.19;100.00;78756.88;5052508;28;19931;-81
2022/04/03 01:48:41;;;;;;;;;;;;;;;-144.19;100.00;78745.06;5034474;28;20259;-82
2022/04/03 01:51:07;;;;;;;;;;;;;;;-144.19;100.00;78733.25;5051637;28;19925;-81
2022/04/03 01:53:34;;;;;;;;;;;;;;;-144.19;100.00;78729.31;5051484;28;20313;-84
2022/04/03 01:56:05;;;;;;;;;;;;;;;-144.19;100.00;78725.38;5033346;28;19929;-83
2022/04/03 01:58:32;;;;;;;;;;;;;;;-144.19;100.00;78747.03;5051956;28;19932;-83
2022/04/03 02:00:58;;;;;;;;;;;;;;;-144.19;100.00;78745.06;5033641;28;19935;-84
2022/04/03 02:03:25;;;;;;;;;;;;;;;-144.19;100.00;78743.09;5033378;28;19925;-84
2022/04/03 02:05:51;;;;;;;;;;;;;;;-144.19;100.00;78750.97;5051312;28;19940;-85
2022/04/03 02:08:17;;;;;;;;;;;;;;;-144.19;100.00;78764.75;5051462;28;20326;-84
2022/04/03 02:10:44;;;;;;;;;;;;;;;-144.19;100.00;78750.97;5051065;28;20019;-85
2022/04/03 02:13:11;;;;;;;;;;;;;;;-144.19;100.00;78772.63;5050842;28;19941;-86
2022/04/03 02:15:38;;;;;;;;;;;;;;;-144.19;100.00;78768.69;5051420;28;19951;-83
2022/04/03 02:18:04;;;;;;;;;;;;;;;-144.19;100.00;78752.94;5051355;28;19931;-81
2022/04/03 02:20:31;;;;;;;;;;;;;;;-144.19;100.00;78760.81;5053013;28;19931;-83
2022/04/03 02:22:58;;;;;;;;;;;;;;;-144.19;100.00;78766.72;5035183;28;19925;-86
2022/04/03 02:25:25;;;;;;;;;;;;;;;-144.19;100.00;78780.50;5034513;28;19924;-84
2022/04/03 02:27:52;;;;;;;;;;;;;;;-144.19;100.00;78794.31;5034206;28;20398;-84
2022/04/03 02:30:18;;;;;;;;;;;;;;;-144.19;100.00;78788.38;5034231;28;20122;-85
2022/04/03 02:32:45;;;;;;;;;;;;;;;-144.19;100.00;78788.38;5033382;28;20342;-84
2022/04/03 02:35:12;;;;;;;;;;;;;;;-144.19;100.00;78764.75;5047276;28;19925;-82
2022/04/03 02:37:39;;;;;;;;;;;;;;;-144.19;100.00;78774.59;5053989;28;19925;-87
2022/04/03 02:40:06;;;;;;;;;;;;;;;-144.19;100.00;78788.38;5071568;28;20010;-86
2022/04/03 02:42:33;;;;;;;;;;;;;;;-144.19;100.00;78782.47;5069847;28;20452;-84
2022/04/03 02:44:59;;;;;;;;;;;;;;;-144.19;100.00;78810.06;5053704;28;20299;-82
2022/04/03 02:47:26;;;;;;;;;;;;;;;-144.19;100.00;78802.19;5071410;28;19934;-86
2022/04/03 02:49:52;;;;;;;;;;;;;;;-144.19;100.00;78814.00;5053299;28;19924;-82
2022/04/03 02:52:19;;;;;;;;;;;;;;;-144.19;100.00;78839.59;5052507;28;19932;-84
2022/04/03 02:54:46;;;;;;;;;;;;;;;-144.19;100.00;78855.34;5053178;28;19931;-84
2022/04/03 02:57:12;;;;;;;;;;;;;;;-144.19;100.00;78871.13;5070542;28;19924;-84
2022/04/03 02:59:39;;;;;;;;;;;;;;;-144.19;100.00;78886.88;5053242;28;19925;-82
2022/04/03 03:02:05;;;;;;;;;;;;;;;-144.19;100.00;78886.88;5070106;28;19925;-83
2022/04/03 03:04:32;;;;;;;;;;;;;;;-144.19;100.00;78910.50;5070586;28;19925;-82
2022/04/03 03:06:58;;;;;;;;;;;;;;;-144.19;100.00;78914.44;5052973;28;20312;-82
2022/04/03 03:09:24;;;;;;;;;;;;;;;-144.19;100.00;78918.38;5070482;28;19931;-83
2022/04/03 03:11:51;;;;;;;;;;;;;;;-144.19;100.00;78918.38;5052224;28;19943;-83
2022/04/03 03:14:17;;;;;;;;;;;;;;;-144.19;100.00;78926.25;5052106;28;19925;-84
2022/04/03 03:16:43;;;;;;;;;;;;;;;-144.19;100.00;78928.22;5049683;28;19954;-85
2022/04/03 03:19:10;;;;;;;;;;;;;;;-144.19;100.00;78932.16;5035419;28;19924;-82
2022/04/03 03:21:36;;;;;;;;;;;;;;;-144.19;100.00;78932.16;5032692;28;19936;-83
2022/04/03 03:24:03;;;;;;;;;;;;;;;-144.19;100.00;78944.00;5033706;28;19925;-83
2022/04/03 03:26:29;;;;;;;;;;;;;;;-144.19;100.00;78922.31;5061928;28;19939;-83
2022/04/03 03:28:55;;;;;;;;;;;;;;;-144.19;100.00;78920.34;5041448;28;19924;-84
2022/04/03 03:31:22;;;;;;;;;;;;;;;-144.19;100.00;78928.22;5060125;28;19924;-83
2022/04/03 03:33:48;;;;;;;;;;;;;;;-144.19;100.00;78914.44;5057545;28;20002;-85
2022/04/03 03:36:14;;;;;;;;;;;;;;;-144.19;100.00;78924.28;5060887;28;19936;-84
2022/04/03 03:38:41;;;;;;;;;;;;;;;-144.19;100.00;78930.19;5057469;28;20037;-84
2022/04/03 03:41:07;;;;;;;;;;;;;;;-144.19;100.00;78938.06;5052738;28;19929;-83
2022/04/03 03:43:33;;;;;;;;;;;;;;;-144.19;100.00;78957.78;5050069;28;19924;-83
2022/04/03 03:45:59;;;;;;;;;;;;;;;-144.19;100.00;78938.06;5031776;28;19932;-82
2022/04/03 03:48:26;;;;;;;;;;;;;;;-144.19;100.00;78957.78;5032160;28;19924;-82
2022/04/03 03:50:52;;;;;;;;;;;;;;;-144.19;100.00;78944.00;5031759;28;19956;-84
2022/04/03 03:53:19;;;;;;;;;;;;;;;-144.19;100.00;78936.09;5031912;28;19928;-83
2022/04/03 03:55:46;;;;;;;;;;;;;;;-144.19;100.00;78953.84;5032144;28;20020;-83
2022/04/03 03:58:12;;;;;;;;;;;;;;;-144.19;100.00;78957.78;5042198;28;20301;-84
2022/04/03 04:00:39;;;;;;;;;;;;;;;-144.19;100.00;78934.13;5069987;28;20019;-84
2022/04/03 04:03:05;;;;;;;;;;;;;;;-144.19;100.00;78942.00;5051914;28;19925;-83
2022/04/03 04:05:32;;;;;;;;;;;;;;;-144.19;100.00;78930.19;5051905;28;19928;-83
2022/04/03 04:07:58;;;;;;;;;;;;;;;-144.19;100.00;78922.31;5070094;28;19925;-81
2022/04/03 04:10:24;;;;;;;;;;;;;;;-144.19;100.00;78926.25;5051963;28;19932;-84
2022/04/03 04:12:50;;;;;;;;;;;;;;;-144.19;100.00;78912.47;5070857;28;19925;-84
2022/04/03 04:15:17;;;;;;;;;;;;;;;-144.19;100.00;78904.59;5054183;28;19932;-84
2022/04/03 04:17:44;;;;;;;;;;;;;;;-144.19;100.00;78912.47;5061820;28;19933;-83
2022/04/03 04:20:16;;;;;;;;;;;;;;;-144.19;100.00;78906.56;5064489;28;19929;-84
2022/04/03 04:22:43;;;;;;;;;;;;;;;-144.19;100.00;78888.84;5061691;28;20224;-84
2022/04/03 04:25:16;;;;;;;;;;;;;;;-144.19;100.00;78916.41;5046751;28;19938;-83
2022/04/03 04:27:43;;;;;;;;;;;;;;;-144.19;100.00;78916.41;5049275;28;19931;-83
2022/04/03 04:30:10;;;;;;;;;;;;;;;-144.19;100.00;78918.38;5062829;28;19935;-82
2022/04/03 04:32:37;;;;;;;;;;;;;;;-144.19;100.00;78902.63;5063852;28;19924;-83
2022/04/03 04:35:04;;;;;;;;;;;;;;;-144.19;100.00;78914.44;5048566;28;19931;-85
2022/04/03 04:37:31;;;;;;;;;;;;;;;-144.19;100.00;78908.53;5051754;28;20244;-83
2022/04/03 04:39:57;;;;;;;;;;;;;;;-144.19;100.00;78920.34;5063271;28;20049;-83
2022/04/03 04:42:24;;;;;;;;;;;;;;;-144.19;100.00;78910.50;5061449;28;19939;-82
2022/04/03 04:44:50;;;;;;;;;;;;;;;-144.19;100.00;78930.19;5071026;28;20019;-80
2022/04/03 04:47:16;;;;;;;;;;;;;;;-144.19;100.00;78965.66;5055664;28;19925;-84
2022/04/03 04:49:43;;;;;;;;;;;;;;;-144.19;100.00;78949.91;5073433;28;19928;-86
2022/04/03 04:52:09;;;;;;;;;;;;;;;-144.19;100.00;78945.94;5054611;28;19925;-82
2022/04/03 04:54:35;;;;;;;;;;;;;;;-144.19;100.00;78973.53;5073838;28;19924;-82
2022/04/03 04:57:02;;;;;;;;;;;;;;;-144.19;100.00;78944.00;5056134;28;20402;-82
2022/04/03 04:59:31;;;;;;;;;;;;;;;-144.19;100.00;78930.19;5056046;28;19924;-80
2022/04/03 05:01:59;;;;;;;;;;;;;;;-144.19;100.00;78949.91;5054654;28;19928;-83
2022/04/03 05:04:26;;;;;;;;;;;;;;;-144.19;100.00;78959.75;5055159;28;20355;-83
2022/04/03 05:06:53;;;;;;;;;;;;;;;-144.19;100.00;78944.00;5073355;28;19935;-83
2022/04/03 05:09:19;;;;;;;;;;;;;;;-144.19;100.00;78926.25;5055551;28;19925;-84
2022/04/03 05:11:46;;;;;;;;;;;;;;;-144.19;100.00;78942.00;5055168;28;19925;-84
2022/04/03 05:14:13;;;;;;;;;;;;;;;-144.19;100.00;78949.91;5054513;28;19956;-84
2022/04/03 05:16:40;;;;;;;;;;;;;;;-144.19;100.00;78957.78;5072754;28;20354;-81
2022/04/03 05:19:07;;;;;;;;;;;;;;;-144.19;100.00;78949.91;5055018;28;19929;-83
2022/04/03 05:21:33;;;;;;;;;;;;;;;-144.19;100.00;78926.25;5055413;28;19931;-82
2022/04/03 05:24:00;;;;;;;;;;;;;;;-144.19;100.00;78930.19;5052981;28;19931;-83
2022/04/03 05:26:26;;;;;;;;;;;;;;;-144.19;100.00;78945.94;5072676;28;19983;-84
2022/04/03 05:28:52;;;;;;;;;;;;;;;-144.19;100.00;78922.31;5072320;28;20425;-84
2022/04/03 05:31:19;;;;;;;;;;;;;;;-144.19;100.00;78902.63;5072474;28;19939;-83
2022/04/03 05:33:45;;;;;;;;;;;;;;;-144.19;100.00;78890.81;5070128;28;19925;-81
2022/04/03 05:36:12;;;;;;;;;;;;;;;-144.19;100.00;78932.16;5034730;28;19936;-81
2022/04/03 05:38:38;;;;;;;;;;;;;;;-144.19;100.00;78918.38;5034614;28;19932;-82
2022/04/03 05:41:04;;;;;;;;;;;;;;;-144.19;100.00;78894.75;5034047;28;19925;-81
2022/04/03 05:43:31;;;;;;;;;;;;;;;-144.19;100.00;78906.56;5050544;28;19932;-84
2022/04/03 05:45:57;;;;;;;;;;;;;;;-144.19;100.00;78898.69;5034358;28;19932;-82
2022/04/03 05:48:23;;;;;;;;;;;;;;;-144.19;100.00;78884.91;5052564;28;19931;-84
2022/04/03 05:50:50;;;;;;;;;;;;;;;-144.19;100.00;78875.06;5052092;28;19936;-83
2022/04/03 05:53:16;;;;;;;;;;;;;;;-144.19;100.00;78861.25;5051306;28;19929;-82
2022/04/03 05:55:42;;;;;;;;;;;;;;;-144.19;100.00;78855.34;5051272;28;19935;-81
2022/04/03 05:58:09;;;;;;;;;;;;;;;-144.19;100.00;78867.16;5041644;28;20051;-83
2022/04/03 06:00:35;;;;;;;;;;;;;;;-144.19;100.00;78859.28;5071062;28;19931;-83
2022/04/03 06:03:02;;;;;;;;;;;;;;;-144.19;100.00;78865.19;5054644;28;19999;-83
2022/04/03 06:05:29;;;;;;;;;;;;;;;-144.19;100.00;78841.56;5074212;28;19924;-82
2022/04/03 06:07:59;;;;;;;;;;;;;;;-144.19;100.00;78855.34;5071833;28;19955;-83
2022/04/03 06:10:25;;;;;;;;;;;;;;;-144.19;100.00;78867.16;5071676;28;19924;-84
2022/04/03 06:12:52;;;;;;;;;;;;;;;-144.19;100.00;78843.53;5070128;28;19928;-84
2022/04/03 06:15:18;;;;;;;;;;;;;;;-144.19;100.00;78863.22;5073037;28;19935;-87
2022/04/03 06:17:46;;;;;;;;;;;;;;;-144.19;100.00;78865.19;5081697;22;20015;-86
2022/04/03 06:20:13;;;;;;;;;;;;;;;-144.19;100.00;78873.09;5045657;28;20378;-85
2022/04/03 06:22:40;;;;;;;;;;;;;;;-144.19;100.00;78894.75;5062493;28;20306;-84
2022/04/03 06:25:07;;;;;;;;;;;;;;;-144.19;100.00;78873.09;5065907;28;19924;-85
2022/04/03 06:27:34;;;;;;;;;;;;;;;-144.19;100.00;78835.66;5065012;28;19925;-85
2022/04/03 06:30:00;;;;;;;;;;;;;;;-144.19;100.00;78835.66;5065343;28;19925;-85
2022/04/03 06:32:26;;;;;;;;;;;;;;;-144.19;100.00;78873.09;5045308;28;20443;-84
2022/04/03 06:34:53;;;;;;;;;;;;;;;-144.19;100.00;78855.34;5063109;28;20326;-84
2022/04/03 06:37:19;;;;;;;;;;;;;;;-144.19;100.00;78823.84;5057533;28;19931;-85
2022/04/03 06:39:45;;;;;;;;;;;;;;;-144.19;100.00;78831.72;5062892;28;20019;-86
2022/04/03 06:42:12;;;;;;;;;;;;;;;-144.19;100.00;78804.16;5065008;28;19929;-84
2022/04/03 06:44:38;;;;;;;;;;;;;;;-144.19;100.00;78776.56;5064366;28;20350;-84
2022/04/03 06:47:05;;;;;;;;;;;;;;;-144.19;100.00;78743.09;5062928;28;19984;-83
2022/04/03 06:49:32;;;;;;;;;;;;;;;-144.19;100.00;78764.75;5044581;28;19932;-84
2022/04/03 06:52:00;;;;;;;;;;;;;;;-144.19;100.00;78733.25;5065183;28;19929;-84
2022/04/03 06:54:26;;;;;;;;;;;;;;;-144.19;100.00;78727.34;5063318;28;19925;-83
2022/04/03 06:56:54;;;;;;;;;;;;;;;-144.19;100.00;78709.63;5062931;28;19931;-84
2022/04/03 06:59:20;;;;;;;;;;;;;;;-144.19;100.00;78701.72;5065527;28;19925;-84
2022/04/03 07:01:47;;;;;;;;;;;;;;;-144.19;100.00;78685.97;5063400;28;20562;-87
2022/04/03 07:04:13;;;;;;;;;;;;;;;-144.19;100.00;78658.41;5062978;28;19925;-83
2022/04/03 07:06:39;;;;;;;;;;;;;;;-144.19;100.00;78680.06;5061391;28;19924;-84
2022/04/03 07:09:06;;;;;;;;;;;;;;;-144.19;100.00;78693.84;5063273;28;20310;-81
2022/04/03 07:11:32;;;;;;;;;;;;;;;-144.19;100.00;78707.66;5054893;28;20007;-81
2022/04/03 07:14:00;;;;;;;;;;;;;;;-144.19;100.00;78689.91;5063471;28;19931;-82
2022/04/03 07:16:28;;;;;;;;;;;;;;;-144.19;100.00;78676.13;5062155;28;21302;-82
2022/04/03 07:18:55;;;;;;;;;;;;;;;-144.19;100.00;78660.38;5064067;28;19971;-82
2022/04/03 07:21:21;;;;;;;;;;;;;;;-144.19;100.00;78685.97;5062550;28;19931;-83
2022/04/03 07:23:48;;;;;;;;;;;;;;;-144.19;100.00;78622.97;5065121;28;19925;-83
2022/04/03 07:26:14;;;;;;;;;;;;;;;-144.19;100.00;78634.78;5055673;28;19925;-81
2022/04/03 07:28:41;;;;;;;;;;;;;;;-144.19;100.00;78591.44;5069781;28;19912;-81
2022/04/03 07:31:11;;;;;;;;;;;;;;;-144.19;100.00;78591.44;5058456;28;20145;-83
2022/04/03 07:33:39;;;;;;;;;;;;;;;-144.19;100.00;78573.72;5058569;28;19929;-84
2022/04/03 07:36:26;;;;;;;;;;;;;;;-144.19;100.00;78538.28;5070373;28;19921;-82
2022/04/03 07:39:21;;;;;;;;;;;;;;;-144.19;100.00;78524.50;5075367;28;19909;-82
2022/04/03 07:42:02;;;;;;;;;;;;;;;-144.19;100.00;78473.28;5056968;28;19929;-81
2022/04/03 07:44:30;;;;;;;;;;;;;;;-144.19;100.00;78483.13;5074635;28;19936;-82
2022/04/03 07:47:03;;;;;;;;;;;;;;;-144.19;100.00;78498.88;5056703;28;19933;-82
2022/04/03 07:49:30;;;;;;;;;;;;;;;-144.19;100.00;78492.97;5057709;28;19925;-81
2022/04/03 07:52:13;;;;;;;;;;;;;;;-144.19;100.00;78469.34;5061413;28;19992;-83
2022/04/03 07:54:51;;;;;;;;;;;;;;;-144.19;100.00;78463.44;5060020;28;19913;-82
2022/04/03 07:57:32;;;;;;;;;;;;;;;-144.19;100.00;78445.72;5079795;28;19955;-83
2022/04/03 07:59:59;;;;;;;;;;;;;;;-144.19;100.00;78426.03;5061844;28;19983;-82
2022/04/03 08:02:30;;;;;;;;;;;;;;;-144.19;100.00;78426.03;5076988;28;19973;-82
2022/04/03 08:05:13;;;;;;;;;;;;;;;-144.19;100.00;78435.88;5075035;28;19931;-82
2022/04/03 08:07:48;;;;;;;;;;;;;;;-144.19;100.00;78392.53;5058665;28;19920;-83
2022/04/03 08:10:49;;;;;;;;;;;;;;;;;;;;;
2022/04/03 08:13:33;;;;;;;;;;;;;;;-144.19;100.00;78408.28;5054106;28;20330;-80
2022/04/03 08:16:03;;;;;;;;;;;;;;;-144.19;100.00;78428.00;5054082;28;20000;-81
2022/04/03 08:18:44;;;;;;;;;;;;;;;-144.19;100.00;78453.59;5055165;28;19951;-82
2022/04/03 08:24:43;;;;;;;;;;;;;;;-144.19;100.00;78418.13;5063625;28;20242;-84
2022/04/03 08:27:29;;;;;;;;;;;;;;;-144.19;100.00;78418.13;5041844;28;19929;-83
2022/04/03 08:33:56;;;;;;;;;;;;;;;-144.19;100.00;78325.59;5046803;28;19981;-83
2022/04/03 08:37:16;;;;;;;;;;;;;;;-144.19;100.00;78359.06;5077627;28;19909;-83
2022/04/03 08:40:18;;;;;;;;;;;;;;;-144.19;100.00;78335.44;5057618;28;20149;-82
2022/04/03 08:43:07;;;;;;;;;;;;;;;-144.19;100.00;78374.81;5064910;28;19997;-84
2022/04/03 08:48:44;;;;;;;;;;;;;;;-144.19;100.00;78319.69;5073573;28;19931;-81
2022/04/03 08:51:34;;;;;;;;;;;;;;;-144.19;100.00;78307.88;5061826;28;19951;-83
2022/04/03 08:54:28;;;;;;;;;;;;;;;-144.19;100.00;78284.22;5057545;28;19925;-81
2022/04/03 08:56:55;;;;;;;;;;;;;;;-144.19;100.00;78272.41;5078942;28;19921;-86
2022/04/03 08:59:37;;;;;;;;;;;;;;;-144.19;100.00;78284.22;5061207;28;19928;-84
2022/04/03 09:02:19;;;;;;;;;;;;;;;-144.19;100.00;78244.84;5074694;28;19931;-87
2022/04/03 09:04:55;;;;;;;;;;;;;;;-144.19;100.00;78282.25;5092740;28;19932;-87
2022/04/03 09:07:28;;;;;;;;;;;;;;;-144.19;100.00;78236.97;5038166;28;19932;-84
2022/04/03 09:10:17;;;;;;;;;;;;;;;-144.19;100.00;78187.75;5045743;28;19951;-85
2022/04/03 09:13:03;;;;;;;;;;;;;;;-144.19;100.00;78219.25;5058250;28;19924;-84
2022/04/03 09:15:33;;;;;;;;;;;;;;;-144.19;100.00;78195.63;5050756;28;20382;-85
2022/04/03 09:18:47;;;;;;;;;;;;;;;-144.19;100.00;78242.88;5077504;28;20000;-86
2022/04/03 09:21:17;;;;;;;;;;;;;;;-144.19;100.00;78215.31;5045057;28;20011;-83
2022/04/03 09:24:08;;;;;;;;;;;;;;;-144.19;100.00;78225.16;5074647;28;19925;-85
2022/04/03 09:27:15;;;;;;;;;;;;;;;-144.19;100.00;78246.81;5061879;28;19919;-84
2022/04/03 09:29:44;;;;;;;;;;;;;;;-144.19;100.00;78244.84;5075887;28;19925;-84
2022/04/03 09:32:11;;;;;;;;;;;;;;;-144.19;100.00;78240.91;5058745;28;19925;-84
2022/04/03 09:34:55;;;;;;;;;;;;;;;-144.19;100.00;78215.31;5061967;28;19925;-84
2022/04/03 09:37:22;;;;;;;;;;;;;;;-144.19;100.00;78260.59;5056432;28;20240;-84
2022/04/03 09:40:06;;;;;;;;;;;;;;;-144.19;100.00;78252.72;5076742;28;19955;-84
2022/04/03 09:42:54;;;;;;;;;;;;;;;-144.19;100.00;78246.81;5060103;28;19955;-85
2022/04/03 09:45:51;;;;;;;;;;;;;;;-144.19;100.00;78262.56;5053825;28;19947;-85
2022/04/03 09:49:00;;;;;;;;;;;;;;;-144.19;100.00;78235.00;5069457;28;19924;-81
2022/04/03 09:51:45;;;;;;;;;;;;;;;-144.19;100.00;78240.91;5045213;28;19982;-82
2022/04/03 09:54:17;;;;;;;;;;;;;;;-144.19;100.00;78236.97;5076659;28;20351;-81
2022/04/03 09:57:07;;;;;;;;;;;;;;;-144.19;100.00;78177.91;5056244;28;19960;-81
2022/04/03 09:59:54;;;;;;;;;;;;;;;-144.19;100.00;78144.41;5033040;28;19940;-82
2022/04/03 10:02:46;;;;;;;;;;;;;;;-144.19;100.00;78103.06;5056180;28;19938;-83
2022/04/03 10:05:23;;;;;;;;;;;;;;;-144.19;100.00;78040.06;5072194;28;19983;-82
2022/04/03 10:08:15;;;;;;;;;;;;;;;-144.19;100.00;78010.50;5063444;28;19925;-82
2022/04/03 10:11:05;;;;;;;;;;;;;;;-144.19;100.00;78107.00;5073225;28;19928;-82
2022/04/03 10:17:07;;;;;;;;;;;;;;;-144.19;100.00;78028.22;5070744;28;20007;-81
2022/04/03 10:19:57;;;;;;;;;;;;;;;-144.19;100.00;78024.31;5055023;28;19920;-81
2022/04/03 10:22:55;;;;;;;;;;;;;;;-144.19;100.00;77969.16;5053815;28;19924;-82
2022/04/03 10:25:54;;;;;;;;;;;;;;;-144.19;100.00;77949.47;5053424;28;20584;-81
2022/04/03 10:28:25;;;;;;;;;;;;;;;-144.19;100.00;77902.22;5039569;28;20399;-81
2022/04/03 10:34:29;;;;;;;;;;;;;;;-144.19;100.00;77854.97;5052038;28;19963;-82
2022/04/03 10:37:26;;;;;;;;;;;;;;;-144.19;100.00;77823.44;5058807;28;19936;-82
2022/04/03 10:40:18;;;;;;;;;;;;;;;-144.19;100.00;77851.03;5059579;28;19928;-83
2022/04/03 10:43:06;;;;;;;;;;;;;;;-144.19;100.00;77847.09;5057912;28;19913;-83
2022/04/03 10:46:11;;;;;;;;;;;;;;;-144.19;100.00;77817.53;5059032;28;19912;-82
2022/04/03 10:49:01;;;;;;;;;;;;;;;-144.19;100.00;77776.19;5055853;28;19929;-82
2022/04/03 10:51:31;;;;;;;;;;;;;;;-144.19;100.00;77835.25;5075935;28;19935;-84
2022/04/03 10:54:07;;;;;;;;;;;;;;;-144.19;100.00;77821.47;5056366;28;19948;-83
2022/04/03 10:56:39;;;;;;;;;;;;;;;-144.19;100.00;77841.19;5057012;28;20011;-79
2022/04/03 10:59:10;;;;;;;;;;;;;;;-144.19;100.00;77817.53;5074569;28;19936;-78
2022/04/03 11:01:46;;;;;;;;;;;;;;;-144.19;100.00;77687.59;5056872;28;19964;-79
2022/04/03 11:04:41;;;;;;;;;;;;;;;-144.19;100.00;77644.28;5063321;28;19976;-82
2022/04/03 11:07:29;;;;;;;;;;;;;;;-144.19;100.00;77669.88;5058214;28;19928;-83
2022/04/03 11:10:08;;;;;;;;;;;;;;;-144.19;100.00;77817.53;5073469;28;19913;-83
2022/04/03 11:13:05;;;;;;;;;;;;;;;-144.19;100.00;77793.91;5057331;28;19923;-83
2022/04/03 11:15:59;;;;;;;;;;;;;;;-144.19;100.00;77791.94;5072777;28;19924;-84
2022/04/03 11:19:03;;;;;;;;;;;;;;;-144.19;100.00;77821.47;5071454;28;20027;-83
2022/04/03 11:22:27;;;;;;;;;;;;;;;-144.19;100.00;77856.94;5055168;28;19993;-81
2022/04/03 11:25:16;;;;;;;;;;;;;;;-144.19;100.00;77894.34;5073819;28;20109;-84
2022/04/03 11:28:16;;;;;;;;;;;;;;;-144.19;100.00;77947.50;5058225;28;19929;-82
2022/04/03 11:31:51;;;;;;;;;;;;;;;;;;;;;
2022/04/03 11:34:56;;;;;;;;;;;;;;;-144.19;100.00;77986.88;4995502;28;19914;-82
2022/04/03 11:41:27;;;;;;;;;;;;;;;-144.19;100.00;78006.56;5056829;28;19940;-83
2022/04/03 11:58:09;;;;;;;;;;;;;;;-144.19;100.00;77599.00;4982335;28;19974;-85
2022/04/03 12:01:35;;;;;;;;;;;;;;;-144.19;100.00;77504.47;4992716;28;19930;-85
2022/04/03 12:04:08;;;;;;;;;;;;;;;-144.19;100.00;77614.75;4983573;28;19937;-83
2022/04/03 12:06:38;;;;;;;;;;;;;;;-144.19;99.16;77545.84;5069968;28;19924;-83
2022/04/03 12:09:12;;;;;;;;;;;;;;;-144.19;95.80;77453.28;5070223;28;20004;-82
2022/04/03 12:11:51;;;;;;;;;;;;;;;-144.19;90.87;77425.72;5055393;28;19935;-84
2022/04/03 12:14:45;;;;;;;;;;;;;;;-144.19;91.73;77350.91;5054305;28;19928;-82
2022/04/03 12:17:38;;;;;;;;;;;;;;;-144.19;80.13;77303.66;5034027;23;19988;-82
2022/04/03 12:20:09;;;;;;;;;;;;;;;-144.19;76.84;77425.72;5009083;28;19925;-81
2022/04/03 12:22:40;;;;;;;;;;;;;;;-144.19;81.17;77595.06;5012481;28;19926;-83
2022/04/03 12:25:07;;;;;;;;;;;;;;;-144.19;87.35;77593.09;5018563;28;19936;-84
2022/04/03 12:27:34;;;;;;;;;;;;;;;-144.19;84.74;77610.81;5014793;28;19932;-81
2022/04/03 12:30:01;;;;;;;;;;;;;;;-144.19;84.59;77658.06;5011533;28;19925;-84
2022/04/03 12:32:32;;;;;;;;;;;;;;;-144.19;88.43;77673.81;5011665;28;20008;-83
2022/04/03 12:34:59;;;;;;;;;;;;;;;-144.19;88.09;77660.03;5005576;28;19926;-84
2022/04/03 12:37:25;;;;;;;;;;;;;;;-144.19;89.40;77650.19;4993245;28;19934;-85
2022/04/03 12:39:54;;;;;;;;;;;;;;;-144.19;85.36;77626.56;5004928;28;20352;-84
2022/04/03 12:42:23;;;;;;;;;;;;;;;-144.19;80.36;77622.63;5005601;28;19929;-84
2022/04/03 12:44:57;;;;;;;;;;;;;;;-144.19;85.34;77595.06;5016038;28;20380;-83
2022/04/03 12:47:24;;;;;;;;;;;;;;;-144.19;83.23;77616.72;5004132;28;19980;-83
2022/04/03 12:50:02;;;;;;;;;;;;;;;-144.19;78.80;77650.19;5003588;28;19930;-85
2022/04/03 12:52:49;;;;;;;;;;;;;;;-144.19;76.55;77669.88;4998953;28;19929;-82
2022/04/03 12:55:24;;;;;;;;;;;;;;;-144.19;75.24;77717.13;5011102;28;20024;-82
2022/04/03 13:00:41;;;;;;;;;;;;;;;-144.19;76.41;77717.13;5004620;28;20280;-84
2022/04/03 13:03:08;;;;;;;;;;;;;;;-144.19;78.88;77697.44;4998243;28;20272;-84
2022/04/03 13:05:34;;;;;;;;;;;;;;;-144.19;76.60;77752.56;5004047;28;19956;-83
2022/04/03 13:08:10;;;;;;;;;;;;;;;-144.19;78.11;77721.06;4998656;28;20303;-84
2022/04/03 13:10:54;;;;;;;;;;;;;;;-144.19;80.89;77746.66;5014341;28;20002;-84
2022/04/03 13:13:25;;;;;;;;;;;;;;;-144.19;83.37;77807.69;5003028;28;19926;-84
2022/04/03 13:15:52;;;;;;;;;;;;;;;-144.19;89.25;77807.69;5015627;28;19936;-82
2022/04/03 13:18:19;;;;;;;;;;;;;;;-144.19;100.00;77803.75;5010585;28;19936;-81
2022/04/03 13:20:53;;;;;;;;;;;;;;;-144.19;100.00;77807.69;5005586;28;19951;-83
2022/04/03 13:23:20;;;;;;;;;;;;;;;-144.19;100.00;77819.50;5004847;28;19968;-84
2022/04/03 13:25:47;;;;;;;;;;;;;;;-144.19;100.00;77835.25;5002389;28;20008;-83